Time;durP1;ratioP1;P1;durP2;ratioP2;P2;SDS_P1;SDS_P2;PMS_P1;PMS_P2;Temp;Humidity;BMP_temperature;BMP_pressure;BME280_temperature;BME280_humidity;BME280_pressure;Samples;Min_cycle;Max_cycle;Signal;HPM_P1;HPM_P2
2023/11/06 06:48:21;;;;;;;4.28;0.73;;;;;;;7.40;90.98;95589.31;2090846;27;20565;-66
2023/11/06 06:49:26;;;;;;;6.43;1.67;;;;;;;7.53;89.97;95590.41;2080301;28;20288;-66
2023/11/06 06:50:27;;;;;;;6.18;1.15;;;;;;;7.71;88.81;95590.38;2064787;28;20198;-66
2023/11/06 06:52:48;;;;;;;3.17;1.30;;;;;;;8.02;87.28;95597.47;2083811;28;20563;-66
2023/11/06 06:54:49;;;;;;;6.00;1.60;;;;;;;8.37;86.04;95597.41;2108868;27;20538;-64
2023/11/06 06:55:51;;;;;;;5.22;1.52;;;;;;;8.49;85.16;95598.56;2105998;28;20217;-65
2023/11/06 06:56:55;;;;;;;7.50;1.25;;;;;;;8.76;84.14;95608.41;2104869;28;20260;-65
2023/11/06 06:57:59;;;;;;;7.53;1.70;;;;;;;8.71;83.85;95608.69;2105329;28;20187;-65
2023/11/06 06:59:01;;;;;;;5.45;1.60;;;;;;;8.98;83.13;95600.28;2086173;28;20280;-64
2023/11/06 07:00:03;;;;;;;6.10;1.70;;;;;;;9.09;81.91;95603.13;2088233;28;20207;-64
2023/11/06 07:01:07;;;;;;;7.78;2.55;;;;;;;9.26;81.56;95607.41;2088779;28;20690;-65
2023/11/06 07:02:08;;;;;;;6.65;1.92;;;;;;;9.35;80.95;95610.44;2089584;28;20241;-65
2023/11/06 07:03:10;;;;;;;11.65;1.65;;;;;;;9.60;80.70;95615.09;2090647;28;20582;-65
2023/11/06 07:04:12;;;;;;;5.22;2.15;;;;;;;9.82;79.54;95613.84;2090815;28;20666;-65
2023/11/06 07:05:13;;;;;;;4.55;1.65;;;;;;;9.75;79.22;95615.94;2087867;28;20259;-67
2023/11/06 07:06:15;;;;;;;6.28;1.90;;;;;;;9.77;79.11;95611.50;2086104;28;20714;-66
2023/11/06 07:07:17;;;;;;;8.90;2.15;;;;;;;9.87;79.29;95612.63;2087736;28;20194;-67
2023/11/06 07:08:18;;;;;;;6.38;2.22;;;;;;;10.16;78.26;95614.47;2089817;28;20219;-67
2023/11/06 07:09:24;;;;;;;5.82;1.75;;;;;;;10.19;77.66;95617.72;2086920;28;20680;-67
2023/11/06 07:10:25;;;;;;;4.43;1.70;;;;;;;10.59;76.84;95614.53;2089854;28;20299;-67
2023/11/06 07:11:29;;;;;;;8.70;1.92;;;;;;;10.58;75.96;95621.50;2087868;28;20602;-67
2023/11/06 07:12:31;;;;;;;4.03;1.30;;;;;;;10.88;75.34;95624.94;2086834;28;20193;-67
2023/11/06 07:13:32;;;;;;;4.15;0.88;;;;;;;10.68;75.48;95623.56;2088589;28;20217;-67
2023/11/06 07:14:34;;;;;;;3.38;1.17;;;;;;;10.40;76.23;95631.31;2084493;28;20818;-67
2023/11/06 07:15:35;;;;;;;4.85;1.15;;;;;;;10.64;75.96;95624.69;2085154;28;20205;-67
2023/11/06 07:16:37;;;;;;;4.28;1.15;;;;;;;10.71;76.27;95628.59;2085551;28;20199;-67
2023/11/06 07:17:39;;;;;;;2.15;0.95;;;;;;;10.35;76.83;95635.06;2085801;28;20223;-66
2023/11/06 07:18:40;;;;;;;5.25;0.70;;;;;;;10.37;77.27;95636.69;2084457;28;20235;-67
2023/11/06 07:19:42;;;;;;;2.25;0.80;;;;;;;10.18;78.06;95644.75;2086116;28;20259;-66
2023/11/06 07:20:44;;;;;;;3.63;0.80;;;;;;;10.28;77.56;95635.47;2085665;28;20205;-67
2023/11/06 07:21:46;;;;;;;4.85;0.90;;;;;;;10.36;77.68;95637.66;2089646;28;20201;-67
2023/11/06 07:22:48;;;;;;;1.52;0.73;;;;;;;10.38;77.46;95640.97;2090356;28;20193;-67
2023/11/06 07:23:50;;;;;;;8.63;0.90;;;;;;;10.12;77.42;95637.31;2086948;28;20589;-66
2023/11/06 07:24:52;;;;;;;4.47;0.95;;;;;;;10.01;78.46;95647.53;2086750;28;20482;-66
2023/11/06 07:25:53;;;;;;;4.45;1.15;;;;;;;10.22;78.29;95637.56;2086902;28;20337;-66
2023/11/06 07:26:56;;;;;;;4.13;1.02;;;;;;;10.37;77.56;95641.91;2084957;28;20306;-66
2023/11/06 07:27:57;;;;;;;2.30;0.90;;;;;;;9.71;78.93;95630.09;2083758;28;20755;-66
2023/11/06 07:28:59;;;;;;;3.40;0.90;;;;;;;9.37;80.85;95639.81;2083630;28;20640;-68
2023/11/06 07:30:00;;;;;;;4.80;1.20;;;;;;;8.94;82.64;95645.66;2086421;28;20245;-66
2023/11/06 07:31:03;;;;;;;8.10;1.88;;;;;;;8.43;84.61;95646.53;2082695;28;20213;-66
2023/11/06 07:32:05;;;;;;;4.65;1.48;;;;;;;8.63;84.70;95645.53;2085083;28;20653;-67
2023/11/06 07:33:06;;;;;;;3.28;1.52;;;;;;;8.83;83.57;95638.41;2082264;28;20193;-66
2023/11/06 07:34:08;;;;;;;4.80;1.67;;;;;;;8.98;83.49;95641.94;2090422;28;20531;-66
2023/11/06 07:35:11;;;;;;;6.50;1.45;;;;;;;8.69;83.90;95643.50;2088746;28;20914;-66
2023/11/06 07:36:13;;;;;;;3.58;1.02;;;;;;;9.42;82.46;95645.63;2089146;28;20192;-66
2023/11/06 07:37:15;;;;;;;4.30;1.20;;;;;;;9.84;80.60;95645.88;2081935;28;20860;-67
2023/11/06 07:38:16;;;;;;;2.78;1.00;;;;;;;10.14;79.36;95640.63;2072560;28;20790;-66
2023/11/06 07:39:18;;;;;;;3.15;1.10;;;;;;;10.40;78.59;95646.97;2080013;28;20531;-67
2023/11/06 07:40:20;;;;;;;3.90;0.90;;;;;;;10.49;77.74;95642.97;2076465;28;20227;-66
2023/11/06 07:41:21;;;;;;;5.07;1.17;;;;;;;10.62;77.06;95643.88;2075229;28;20196;-66
2023/11/06 07:42:23;;;;;;;5.97;1.20;;;;;;;10.71;76.77;95646.88;2076706;28;20191;-67
2023/11/06 07:43:25;;;;;;;2.40;0.85;;;;;;;10.89;76.11;95650.13;2080190;28;20230;-67
2023/11/06 07:44:26;;;;;;;3.60;0.90;;;;;;;11.13;75.57;95647.75;2081217;28;20195;-66
2023/11/06 07:45:32;;;;;;;3.55;1.00;;;;;;;11.16;75.66;95649.34;2081201;28;20245;-66
2023/11/06 07:46:34;;;;;;;8.13;1.00;;;;;;;10.86;75.63;95652.94;2078683;28;20199;-66
2023/11/06 07:47:39;;;;;;;6.70;1.25;;;;;;;11.17;75.76;95646.63;2078226;28;20240;-66
2023/11/06 07:48:41;;;;;;;2.08;0.75;;;;;;;11.21;75.13;95642.91;2076487;28;20221;-66
2023/11/06 07:49:42;;;;;;;6.40;0.90;;;;;;;11.02;75.56;95647.59;2077128;28;20200;-67
2023/11/06 07:50:44;;;;;;;6.05;0.95;;;;;;;11.03;75.49;95646.66;2079902;28;20681;-66
2023/11/06 07:51:45;;;;;;;3.30;1.08;;;;;;;10.91;75.82;95636.03;2078303;28;20197;-66
2023/11/06 07:52:47;;;;;;;2.92;1.05;;;;;;;10.41;77.51;95645.19;2076650;28;20250;-66
2023/11/06 07:53:48;;;;;;;2.13;1.00;;;;;;;10.92;76.57;95642.13;2077301;28;20221;-66
2023/11/06 07:54:49;;;;;;;3.05;0.95;;;;;;;10.85;76.08;95635.59;2079683;28;20263;-66
2023/11/06 07:55:51;;;;;;;6.63;1.23;;;;;;;10.84;76.38;95641.75;2078199;28;20256;-66
2023/11/06 07:56:53;;;;;;;4.45;1.00;;;;;;;10.98;76.37;95639.09;2079958;28;20201;-66
2023/11/06 07:57:54;;;;;;;5.53;1.20;;;;;;;11.32;74.97;95644.81;2078482;28;20220;-66
2023/11/06 07:58:56;;;;;;;6.97;1.00;;;;;;;11.54;74.69;95641.69;2081172;28;20212;-66
2023/11/06 07:59:57;;;;;;;3.45;1.00;;;;;;;11.77;73.48;95644.59;2080004;28;20201;-66
2023/11/06 08:00:59;;;;;;;2.10;0.90;;;;;;;11.72;73.25;95639.66;2079176;28;20552;-67
2023/11/06 08:02:00;;;;;;;3.25;1.10;;;;;;;11.66;73.65;95647.88;2078162;28;20282;-66
2023/11/06 08:03:02;;;;;;;7.32;0.90;;;;;;;11.79;73.19;95653.16;2083031;28;20289;-66
2023/11/06 08:04:04;;;;;;;7.05;1.20;;;;;;;12.25;72.14;95649.28;2079175;28;20194;-67
2023/11/06 08:05:08;;;;;;;5.18;1.48;;;;;;;12.40;71.46;95656.13;2079729;28;20185;-66
2023/11/06 08:06:10;;;;;;;6.32;1.00;;;;;;;12.12;71.76;95651.06;2069740;28;20218;-67
2023/11/06 08:07:13;;;;;;;3.58;1.40;;;;;;;12.19;71.75;95653.19;2075087;28;20745;-66
2023/11/06 08:08:14;;;;;;;6.30;1.67;;;;;;;12.30;72.25;95654.22;2075609;28;20233;-66
2023/11/06 08:09:16;;;;;;;6.38;1.65;;;;;;;12.44;71.39;95661.16;2074322;28;20193;-66
2023/11/06 08:10:18;;;;;;;6.18;1.40;;;;;;;12.93;70.35;95657.78;2070924;28;20202;-66
2023/11/06 08:11:21;;;;;;;8.13;1.42;;;;;;;12.80;70.04;95656.94;2072886;28;20201;-66
2023/11/06 08:12:23;;;;;;;6.55;1.65;;;;;;;12.73;70.47;95664.41;2072707;28;20249;-66
2023/11/06 08:13:24;;;;;;;3.70;1.13;;;;;;;12.81;70.04;95663.88;2076617;28;20213;-66
2023/11/06 08:14:26;;;;;;;3.85;1.05;;;;;;;12.78;69.29;95664.91;2076913;28;20238;-66
2023/11/06 08:15:27;;;;;;;6.50;1.30;;;;;;;12.84;70.00;95668.91;2072871;28;20883;-66
2023/11/06 08:16:33;;;;;;;4.22;1.50;;;;;;;13.12;68.89;95667.81;2076353;28;20594;-66
2023/11/06 08:17:35;;;;;;;4.95;1.38;;;;;;;13.19;69.15;95671.69;2074240;28;20189;-66
2023/11/06 08:18:38;;;;;;;4.80;1.40;;;;;;;13.22;68.79;95676.69;2072430;28;20226;-66
2023/11/06 08:19:41;;;;;;;2.78;1.02;;;;;;;13.19;68.90;95684.78;2071395;28;20194;-67
2023/11/06 08:20:43;;;;;;;2.47;0.80;;;;;;;13.49;68.27;95686.19;2073037;28;20247;-66
2023/11/06 08:21:45;;;;;;;6.28;1.25;;;;;;;13.42;68.55;95671.00;2068746;28;21102;-66
2023/11/06 08:22:47;;;;;;;5.25;0.80;;;;;;;13.64;67.78;95670.31;2071174;28;20198;-67
2023/11/06 08:23:52;;;;;;;4.75;1.20;;;;;;;13.77;67.24;95676.34;2074269;28;20605;-66
2023/11/06 08:24:55;;;;;;;6.97;1.00;;;;;;;13.74;67.48;95676.56;2073878;28;20244;-66
2023/11/06 08:25:56;;;;;;;6.25;1.00;;;;;;;13.58;67.72;95691.75;2073222;28;20771;-66
2023/11/06 08:26:58;;;;;;;4.53;1.00;;;;;;;13.44;67.98;95688.31;2071628;28;20653;-66
2023/11/06 08:28:00;;;;;;;2.50;0.90;;;;;;;13.62;67.49;95693.19;2076365;28;20633;-65
2023/11/06 08:29:02;;;;;;;2.70;0.90;;;;;;;14.31;66.36;95698.63;2072956;28;20201;-67
2023/11/06 08:30:05;;;;;;;2.38;0.80;;;;;;;14.59;66.22;95682.56;2072277;28;20258;-67
2023/11/06 08:31:07;;;;;;;3.78;1.40;;;;;;;14.60;65.09;95690.34;2072860;28;20204;-67
2023/11/06 08:32:11;;;;;;;3.53;1.00;;;;;;;14.42;65.22;95683.84;2071571;28;20190;-67
2023/11/06 08:33:14;;;;;;;2.58;0.90;;;;;;;14.84;64.92;95687.66;2071172;28;20305;-67
2023/11/06 08:34:16;;;;;;;2.70;0.93;;;;;;;15.10;63.85;95689.22;2070888;28;20204;-67
2023/11/06 08:35:18;;;;;;;8.93;0.90;;;;;;;16.05;62.19;95688.72;2072562;28;20209;-67
2023/11/06 08:36:20;;;;;;;5.03;1.23;;;;;;;15.86;62.15;95694.66;2073066;28;20200;-67
2023/11/06 08:37:22;;;;;;;3.33;0.98;;;;;;;15.25;63.09;95693.28;2073513;28;20197;-67
2023/11/06 08:38:25;;;;;;;4.40;0.90;;;;;;;15.09;62.78;95695.44;2070394;28;20874;-67
2023/11/06 08:39:27;;;;;;;3.15;0.80;;;;;;;14.63;63.95;95700.63;2069411;28;20202;-67
2023/11/06 08:40:29;;;;;;;5.90;1.10;;;;;;;14.86;64.51;95698.06;2069478;28;20276;-66
2023/11/06 08:41:30;;;;;;;6.10;1.00;;;;;;;14.81;64.20;95698.41;2071434;28;20590;-67
2023/11/06 08:42:32;;;;;;;3.22;0.70;;;;;;;14.81;63.71;95692.31;2074185;28;20189;-67
2023/11/06 08:43:33;;;;;;;4.55;1.42;;;;;;;15.77;62.41;95695.34;2072664;28;20218;-67
2023/11/06 08:44:35;;;;;;;4.60;1.10;;;;;;;15.22;62.47;95695.31;2072789;28;20185;-66
2023/11/06 08:45:36;;;;;;;5.90;1.35;;;;;;;15.31;63.14;95702.47;2068962;28;20272;-66
2023/11/06 08:46:39;;;;;;;4.45;1.65;;;;;;;15.54;62.49;95705.94;2068706;28;20190;-67
2023/11/06 08:47:41;;;;;;;5.07;1.10;;;;;;;16.33;60.88;95696.97;2068978;28;20185;-67
2023/11/06 08:48:43;;;;;;;4.15;1.00;;;;;;;-145.49;100.00;55703.94;2070283;28;20357;-66
2023/11/06 08:49:45;;;;;;;5.95;1.30;;;;;;;-145.49;100.00;55703.94;2071095;28;20225;-66
2023/11/06 08:50:48;;;;;;;1.83;0.82;;;;;;;16.63;60.42;95712.03;2071908;28;20209;-66
2023/11/06 08:51:50;;;;;;;2.83;0.80;;;;;;;17.09;58.37;95712.59;2070763;28;20226;-66
2023/11/06 08:52:51;;;;;;;4.40;1.15;;;;;;;16.67;59.41;95701.22;2072694;28;20709;-66
2023/11/06 08:53:53;;;;;;;4.68;1.40;;;;;;;16.55;59.43;95708.38;2070439;28;20250;-66
2023/11/06 08:54:54;;;;;;;7.13;1.10;;;;;;;16.51;59.83;95705.16;2071751;28;20199;-66
2023/11/06 08:55:56;;;;;;;3.55;0.90;;;;;;;15.30;62.09;95708.69;2070855;28;20744;-66
2023/11/06 08:56:57;;;;;;;7.18;0.98;;;;;;;13.75;65.83;95712.34;2073409;28;20288;-66
2023/11/06 08:57:59;;;;;;;2.13;0.88;;;;;;;12.28;69.31;95714.53;2071770;28;20206;-66
2023/11/06 08:59:01;;;;;;;2.75;0.85;;;;;;;11.55;72.77;95708.72;2071977;28;20201;-66
2023/11/06 09:00:05;;;;;;;3.58;0.85;;;;;;;11.34;74.61;95704.84;2072320;28;20233;-66
2023/11/06 09:01:08;;;;;;;3.65;1.00;;;;;;;11.06;76.83;95707.41;2072348;28;20539;-66
2023/11/06 09:02:09;;;;;;;7.68;1.20;;;;;;;11.13;77.33;95712.25;2072817;28;20585;-66
2023/11/06 09:03:13;;;;;;;2.75;0.90;;;;;;;11.98;74.34;95714.78;2073522;28;20197;-66
2023/11/06 09:04:15;;;;;;;2.70;0.98;;;;;;;12.64;71.55;95710.38;2074271;28;20613;-66
2023/11/06 09:05:17;;;;;;;4.90;1.60;;;;;;;13.37;69.70;95718.56;2071380;28;20202;-66
2023/11/06 09:06:19;;;;;;;2.15;0.82;;;;;;;12.63;71.01;95711.31;2074742;28;20720;-65
2023/11/06 09:07:20;;;;;;;3.67;0.88;;;;;;;13.58;69.38;95704.84;2074458;28;20284;-66
2023/11/06 09:08:22;;;;;;;2.67;1.20;;;;;;;14.43;66.74;95710.00;2069274;28;20622;-66
2023/11/06 09:09:24;;;;;;;2.13;0.80;;;;;;;14.73;65.86;95705.19;2074916;28;20231;-66
2023/11/06 09:10:25;;;;;;;2.08;1.10;;;;;;;14.95;65.12;95714.91;2077369;28;20194;-66
2023/11/06 09:11:27;;;;;;;4.30;0.95;;;;;;;15.21;64.39;95717.31;2077004;28;20552;-66
2023/11/06 09:12:28;;;;;;;4.55;0.90;;;;;;;15.18;63.84;95718.38;2076697;28;20216;-66
2023/11/06 09:13:35;;;;;;;4.32;1.08;;;;;;;14.62;65.44;95708.63;2074492;28;20315;-66
2023/11/06 09:14:37;;;;;;;4.75;0.80;;;;;;;14.21;66.23;95721.28;2075158;28;20201;-66
2023/11/06 09:15:40;;;;;;;2.65;0.88;;;;;;;14.40;65.97;95720.75;2072261;28;20246;-66
2023/11/06 09:16:42;;;;;;;2.55;1.00;;;;;;;14.69;66.13;95715.94;2076069;28;20194;-66
2023/11/06 09:17:43;;;;;;;3.97;1.00;;;;;;;15.06;64.31;95717.56;2073764;28;20221;-66
2023/11/06 09:18:47;;;;;;;2.75;0.90;;;;;;;15.55;63.69;95719.91;2072018;28;20283;-65
2023/11/06 09:19:49;;;;;;;3.90;1.10;;;;;;;16.23;61.46;95720.59;2073329;28;20204;-66
2023/11/06 09:20:51;;;;;;;2.78;0.82;;;;;;;16.51;61.06;95728.03;2073610;28;20198;-66
2023/11/06 09:21:53;;;;;;;2.85;1.23;;;;;;;16.45;60.85;95730.19;2076301;28;20296;-66
2023/11/06 09:22:54;;;;;;;8.55;0.80;;;;;;;16.94;59.24;95727.91;2070825;28;20193;-66
2023/11/06 09:23:56;;;;;;;4.13;1.25;;;;;;;16.32;60.90;95732.19;2067682;28;20661;-66
2023/11/06 09:24:57;;;;;;;8.20;1.33;;;;;;;15.85;62.01;95739.53;2068740;28;20205;-66
2023/11/06 09:25:59;;;;;;;2.47;0.82;;;;;;;16.05;62.16;95737.88;2072815;28;20190;-66
2023/11/06 09:27:00;;;;;;;2.90;0.95;;;;;;;15.06;63.52;95738.59;2073107;28;20284;-66
2023/11/06 09:28:02;;;;;;;2.22;0.90;;;;;;;15.10;63.41;95728.69;2072038;28;20205;-66
2023/11/06 09:29:04;;;;;;;3.65;1.10;;;;;;;15.68;63.13;95731.97;2072245;28;20213;-66
2023/11/06 09:30:08;;;;;;;10.85;0.98;;;;;;;14.89;63.74;95731.16;2068143;28;20717;-66
2023/11/06 09:31:10;;;;;;;5.00;1.02;;;;;;;13.70;66.88;95738.09;2071227;28;20202;-66
2023/11/06 09:32:11;;;;;;;4.32;1.02;;;;;;;12.90;69.86;95736.63;2074299;28;20283;-66
2023/11/06 09:33:13;;;;;;;4.40;1.08;;;;;;;12.66;70.76;95746.94;2073398;28;20198;-66
2023/11/06 09:34:15;;;;;;;5.32;1.27;;;;;;;12.72;70.57;95743.91;2074743;28;20189;-66
2023/11/06 09:35:16;;;;;;;5.28;1.10;;;;;;;12.62;71.29;95741.09;2074177;28;20258;-66
2023/11/06 09:36:18;;;;;;;2.40;0.82;;;;;;;13.12;69.91;95748.22;2074913;28;20209;-66
2023/11/06 09:37:21;;;;;;;1.90;0.90;;;;;;;12.35;71.15;95752.44;2072738;28;20205;-66
2023/11/06 09:38:23;;;;;;;2.25;0.75;;;;;;;12.38;71.46;95743.56;2073546;28;20304;-66
2023/11/06 09:39:25;;;;;;;5.05;1.00;;;;;;;13.43;69.19;95753.97;2074713;28;20720;-66
2023/11/06 09:40:29;;;;;;;3.20;0.80;;;;;;;14.35;66.70;95744.72;2075725;28;20189;-66
2023/11/06 09:41:30;;;;;;;5.10;1.27;;;;;;;13.75;67.12;95743.84;2075902;28;20213;-66
2023/11/06 09:42:32;;;;;;;4.85;1.02;;;;;;;13.90;67.29;95751.53;2073426;28;20195;-66
2023/11/06 09:43:33;;;;;;;3.05;0.90;;;;;;;14.24;67.03;95746.47;2073368;28;20248;-66
2023/11/06 09:44:36;;;;;;;5.47;1.00;;;;;;;14.24;67.03;95746.47;2073948;28;20190;-66
2023/11/06 09:45:38;;;;;;;5.30;1.00;;;;;;;14.91;64.19;95732.72;2071570;28;20189;-66
2023/11/06 09:46:40;;;;;;;3.58;0.80;;;;;;;16.08;61.88;95742.94;2074153;28;20190;-66
2023/11/06 09:47:52;;;;;;;3.33;0.90;;;;;;;16.16;60.74;95743.97;2072635;28;20281;-66
2023/11/06 09:48:54;;;;;;;1.88;0.75;;;;;;;16.08;60.92;95741.13;2074628;28;20309;-66
2023/11/06 09:50:06;;;;;;;3.25;1.00;;;;;;;15.93;61.16;95743.19;2074265;28;20599;-66
2023/11/06 09:51:12;;;;;;;3.88;1.13;;;;;;;15.77;61.44;95737.44;2073744;28;20856;-66
2023/11/06 09:52:15;;;;;;;3.85;1.30;;;;;;;15.45;62.16;95739.06;2072873;28;20201;-66
2023/11/06 09:53:19;;;;;;;3.50;0.80;;;;;;;16.25;60.93;95747.66;2072775;28;20221;-66
2023/11/06 09:54:23;;;;;;;2.75;0.82;;;;;;;16.51;60.31;95744.66;2070879;28;20279;-66
2023/11/06 09:55:26;;;;;;;3.05;1.13;;;;;;;15.97;61.09;95746.41;2071081;28;20220;-65
2023/11/06 09:56:28;;;;;;;3.97;0.80;;;;;;;16.90;60.20;95750.22;2069934;28;20301;-65
2023/11/06 09:57:31;;;;;;;5.13;1.23;;;;;;;16.89;59.53;95743.25;2072436;28;20198;-66
2023/11/06 09:58:34;;;;;;;4.40;0.80;;;;;;;16.89;59.30;95752.97;2071307;28;20225;-66
2023/11/06 09:59:36;;;;;;;4.70;0.80;;;;;;;17.19;58.33;95751.34;2073987;28;20817;-66
2023/11/06 10:00:38;;;;;;;3.03;0.77;;;;;;;17.01;58.00;95759.03;2066706;28;20194;-66
2023/11/06 10:01:40;;;;;;;2.97;1.00;;;;;;;16.67;58.83;95760.06;2067646;28;20243;-66
2023/11/06 10:02:44;;;;;;;5.60;0.80;;;;;;;16.33;59.11;95754.94;2075036;28;20192;-66
2023/11/06 10:03:46;;;;;;;5.55;1.10;;;;;;;16.42;59.82;95758.63;2070482;28;20218;-66
2023/11/06 10:04:47;;;;;;;4.95;1.00;;;;;;;16.82;60.15;95757.91;2070166;28;20200;-66
2023/11/06 10:05:50;;;;;;;4.80;0.90;;;;;;;17.01;59.03;95762.50;2069065;28;20239;-66
2023/11/06 10:06:51;;;;;;;6.65;0.90;;;;;;;17.19;58.72;95760.13;2068293;28;20718;-66
2023/11/06 10:07:54;;;;;;;5.63;0.80;;;;;;;17.33;58.33;95758.94;2072114;28;20196;-66
2023/11/06 10:08:55;;;;;;;4.63;0.90;;;;;;;17.82;57.40;95761.75;2068047;28;20568;-66
2023/11/06 10:10:10;;;;;;;3.22;1.05;;;;;;;17.38;57.13;95754.09;2069977;28;20243;-66
2023/11/06 10:11:21;;;;;;;1.65;0.82;;;;;;;17.32;57.55;95759.06;2072179;28;20194;-66
2023/11/06 10:12:23;;;;;;;2.47;0.80;;;;;;;16.85;57.81;95751.53;2070820;28;20189;-66
2023/11/06 10:13:25;;;;;;;1.55;0.70;;;;;;;16.91;58.53;95762.47;2068455;28;20210;-66
2023/11/06 10:14:39;;;;;;;3.17;0.80;;;;;;;16.61;58.20;95755.28;2067935;28;20250;-66
2023/11/06 10:15:40;;;;;;;7.15;1.38;;;;;;;16.81;58.96;95754.47;2072467;28;20207;-65
2023/11/06 10:16:42;;;;;;;1.70;0.70;;;;;;;16.35;58.88;95747.72;2073696;28;20659;-66
2023/11/06 10:17:44;;;;;;;5.15;0.90;;;;;;;15.79;59.64;95746.06;2073709;28;20193;-66
2023/11/06 10:18:46;;;;;;;3.30;1.02;;;;;;;16.05;59.81;95748.44;2072241;28;20241;-66
2023/11/06 10:19:59;;;;;;;3.47;0.90;;;;;;;16.11;59.07;95755.84;2076512;28;20182;-66
2023/11/06 10:21:00;;;;;;;7.00;1.30;;;;;;;16.10;59.43;95747.09;2075588;28;20197;-66
2023/11/06 10:22:14;;;;;;;2.53;0.75;;;;;;;16.08;59.24;95741.13;2070779;28;20202;-66
2023/11/06 10:23:24;;;;;;;3.30;0.80;;;;;;;16.44;58.75;95748.75;2070728;28;20255;-65
2023/11/06 10:24:25;;;;;;;3.70;0.82;;;;;;;17.21;57.58;95749.44;2074480;28;20197;-65
2023/11/06 10:25:28;;;;;;;2.65;0.80;;;;;;;16.99;57.32;95746.00;2071263;28;20213;-65
2023/11/06 10:26:31;;;;;;;3.10;0.90;;;;;;;16.20;59.48;95748.97;2071796;28;20740;-66
2023/11/06 10:27:34;;;;;;;2.30;0.75;;;;;;;14.71;62.48;95742.09;2074503;28;20196;-66
2023/11/06 10:28:37;;;;;;;2.55;1.00;;;;;;;13.97;65.40;95748.38;2073699;28;20225;-65
2023/11/06 10:29:57;;;;;;;3.05;0.70;;;;;;;13.31;67.12;95737.31;2071243;28;20193;-66
2023/11/06 10:30:58;;;;;;;6.60;1.08;;;;;;;12.88;68.37;95743.72;2070580;28;20705;-67
2023/11/06 10:31:59;;;;;;;1.80;0.70;;;;;;;12.79;69.72;95752.22;2069785;28;20198;-66
2023/11/06 10:33:21;;;;;;;5.07;1.00;;;;;;;12.31;71.42;95735.28;2067343;28;20229;-65
2023/11/06 10:34:37;;;;;;;6.72;0.90;;;;;;;12.05;71.89;95737.00;2073661;28;20197;-66
2023/11/06 10:35:39;;;;;;;2.20;0.90;;;;;;;12.13;72.74;95742.56;2072469;28;20193;-65
2023/11/06 10:36:43;;;;;;;2.30;0.70;;;;;;;12.07;72.10;95741.19;2073041;28;20209;-66
2023/11/06 10:37:46;;;;;;;4.03;0.90;;;;;;;12.21;72.41;95736.81;2073476;28;20208;-66
2023/11/06 10:38:47;;;;;;;4.15;1.05;;;;;;;12.23;71.72;95748.03;2070607;28;20221;-66
2023/11/06 10:39:56;;;;;;;3.72;1.10;;;;;;;12.23;72.10;95738.41;2069238;28;20660;-66
2023/11/06 10:41:00;;;;;;;10.52;0.82;;;;;;;12.62;70.16;95748.09;2068021;28;20225;-66
2023/11/06 10:42:03;;;;;;;4.22;1.10;;;;;;;13.60;67.56;95737.03;2072817;28;20291;-66
2023/11/06 10:43:05;;;;;;;3.35;0.90;;;;;;;13.63;66.50;95731.59;2073155;28;20199;-66
2023/11/06 10:44:09;;;;;;;1.92;0.75;;;;;;;12.97;68.79;95734.41;2072634;28;20199;-65
2023/11/06 10:45:14;;;;;;;1.45;0.73;;;;;;;12.41;70.99;95740.75;2072675;28;20201;-66
2023/11/06 10:46:16;;;;;;;3.42;1.10;;;;;;;11.96;72.17;95734.97;2074749;28;20201;-65
2023/11/06 10:47:22;;;;;;;3.30;1.50;;;;;;;11.77;73.34;95739.56;2073958;28;20204;-66
2023/11/06 10:48:33;;;;;;;3.08;1.00;;;;;;;11.59;73.70;95732.88;2071975;28;20224;-66
2023/11/06 10:49:53;;;;;;;1.88;0.80;;;;;;;11.50;73.65;95734.31;2069795;28;20194;-66
2023/11/06 10:50:57;;;;;;;4.60;0.80;;;;;;;11.37;74.25;95743.88;2072422;28;20249;-65
2023/11/06 10:52:03;;;;;;;3.00;0.95;;;;;;;11.30;75.04;95742.56;2073783;28;20193;-65
2023/11/06 10:53:06;;;;;;;7.72;0.82;;;;;;;11.17;74.99;95739.88;2070064;28;20200;-66
2023/11/06 10:54:08;;;;;;;3.65;0.95;;;;;;;11.25;75.90;95735.03;2074733;28;20828;-66
2023/11/06 10:55:12;;;;;;;5.57;1.15;;;;;;;11.23;75.29;95742.94;2070710;28;20199;-66
2023/11/06 10:56:30;;;;;;;4.03;0.90;;;;;;;11.07;75.25;95743.03;2071774;28;20203;-65
2023/11/06 10:57:33;;;;;;;3.95;0.80;;;;;;;10.99;75.91;95747.88;2070052;28;20551;-66
2023/11/06 10:58:36;;;;;;;7.82;1.00;;;;;;;10.77;74.83;95743.13;2072407;28;20219;-65
2023/11/06 10:59:38;;;;;;;3.20;0.80;;;;;;;10.73;75.25;95737.25;2073746;28;20276;-65
2023/11/06 11:00:41;;;;;;;1.58;0.70;;;;;;;10.77;75.56;95745.75;2075343;28;20192;-65
2023/11/06 11:01:45;;;;;;;4.68;0.80;;;;;;;10.72;75.71;95745.19;2074775;28;20227;-65
2023/11/06 11:02:52;;;;;;;2.25;0.90;;;;;;;10.68;76.08;95747.13;2073963;28;20728;-65
2023/11/06 11:03:56;;;;;;;2.90;0.90;;;;;;;10.75;76.03;95739.75;2073558;28;20218;-65
2023/11/06 11:04:58;;;;;;;3.75;1.08;;;;;;;10.79;76.50;95738.63;2073417;28;20194;-65
2023/11/06 11:06:02;;;;;;;2.67;0.60;;;;;;;10.84;75.79;95739.19;2076237;28;20201;-66
2023/11/06 11:07:05;;;;;;;3.58;0.80;;;;;;;10.81;75.91;95749.00;2075558;28;20201;-65
2023/11/06 11:08:08;;;;;;;2.28;0.70;;;;;;;10.78;75.68;95745.63;2073908;28;20205;-65
2023/11/06 11:09:11;;;;;;;2.13;0.95;;;;;;;10.85;75.84;95734.84;2075965;28;20202;-65
2023/11/06 11:10:17;;;;;;;2.08;0.80;;;;;;;11.00;75.97;95735.69;2072041;28;20209;-65
2023/11/06 11:11:19;;;;;;;1.70;0.70;;;;;;;10.99;75.71;95736.59;2071563;28;20255;-65
2023/11/06 11:12:21;;;;;;;4.18;0.85;;;;;;;10.91;76.13;95731.84;2072948;28;20213;-65
2023/11/06 11:13:24;;;;;;;3.88;1.45;;;;;;;10.77;76.20;95733.50;2072219;28;20231;-66
2023/11/06 11:14:26;;;;;;;6.22;1.27;;;;;;;10.66;76.64;95740.31;2071777;28;20249;-65
2023/11/06 11:15:30;;;;;;;2.33;0.73;;;;;;;10.58;77.16;95733.75;2068889;28;20273;-65
2023/11/06 11:16:42;;;;;;;2.67;0.60;;;;;;;10.55;76.47;95736.56;2070319;28;20847;-65
2023/11/06 11:18:04;;;;;;;3.05;0.70;;;;;;;10.57;77.61;95741.69;2071997;28;20246;-65
2023/11/06 11:19:20;;;;;;;2.72;0.90;;;;;;;10.54;78.13;95734.88;2071841;28;20447;-65
2023/11/06 11:20:22;;;;;;;9.77;0.93;;;;;;;10.41;77.46;95739.13;2074345;28;20206;-65
2023/11/06 11:22:00;;;;;;;6.47;0.90;;;;;;;10.39;77.79;95734.00;2072863;28;20201;-65
2023/11/06 11:23:07;;;;;;;2.47;0.73;;;;;;;10.29;77.59;95740.66;2073496;28;20264;-65
2023/11/06 11:24:41;;;;;;;4.43;0.70;;;;;;;10.21;77.75;95748.06;2081834;28;20196;-64
2023/11/06 11:26:04;;;;;;;4.03;0.80;;;;;;;10.32;78.34;95744.88;2081934;28;20568;-65
2023/11/06 11:27:10;;;;;;;3.60;1.00;;;;;;;10.37;77.88;95741.06;2079979;28;20239;-65
2023/11/06 11:28:16;;;;;;;2.40;0.80;;;;;;;10.45;78.33;95733.66;2079911;28;20755;-66
2023/11/06 11:29:19;;;;;;;2.60;0.90;;;;;;;10.45;78.37;95736.25;2079354;28;20197;-66
2023/11/06 11:30:26;;;;;;;5.53;0.88;;;;;;;10.52;78.29;95738.50;2079862;28;20694;-65
2023/11/06 11:31:32;;;;;;;3.17;0.90;;;;;;;10.49;77.49;95736.06;2079120;28;20189;-65
2023/11/06 11:32:36;;;;;;;2.70;0.90;;;;;;;10.56;77.78;95738.25;2078936;28;20275;-65
2023/11/06 11:33:54;;;;;;;3.80;0.95;;;;;;;10.61;78.17;95733.59;2079592;28;20227;-65
2023/11/06 11:35:18;;;;;;;2.25;0.80;;;;;;;10.68;77.88;95741.91;2078575;28;20208;-65
2023/11/06 11:36:46;;;;;;;2.30;0.77;;;;;;;10.60;78.26;95747.56;2078672;28;20250;-65
2023/11/06 11:37:58;;;;;;;6.88;0.80;;;;;;;10.52;78.84;95757.63;2075169;28;20225;-65
2023/11/06 11:39:01;;;;;;;1.75;0.77;;;;;;;10.40;79.67;95747.91;2073617;28;20229;-65
2023/11/06 11:40:04;;;;;;;1.65;0.75;;;;;;;10.40;80.18;95743.53;2073521;28;20190;-65
2023/11/06 11:41:09;;;;;;;1.67;0.70;;;;;;;10.34;81.12;95741.25;2075682;28;20681;-65
2023/11/06 11:42:12;;;;;;;5.43;0.90;;;;;;;10.35;82.19;95745.53;2077429;28;20212;-65
2023/11/06 11:48:50;;;;;;;2.97;0.80;;;;;;;-145.49;70.41;55703.94;2091522;27;20573;-64
2023/11/06 11:49:52;;;;;;;2.30;0.70;;;;;;;9.84;83.83;95748.44;2093392;28;20188;-65
2023/11/06 11:50:54;;;;;;;2.22;0.75;;;;;;;9.90;84.67;95752.44;2092354;28;20249;-65
2023/11/06 11:56:45;;;;;;;3.10;0.80;;;;;;;9.60;86.52;95754.06;2085078;28;20893;-65
2023/11/06 11:57:47;;;;;;;7.00;0.80;;;;;;;9.60;86.66;95748.84;2082213;28;20200;-65
2023/11/06 11:58:49;;;;;;;8.68;0.73;;;;;;;9.69;87.38;95757.94;2080249;28;20213;-66
2023/11/06 11:59:52;;;;;;;2.50;0.70;;;;;;;9.66;86.07;95747.66;2082072;28;20272;-65
2023/11/06 12:00:57;;;;;;;3.35;0.70;;;;;;;9.79;87.56;95759.09;2080981;28;20197;-65